Time;durP1;ratioP1;P1;durP2;ratioP2;P2;SDS_P1;SDS_P2;PMS_P1;PMS_P2;Temp;Humidity;BMP_temperature;BMP_pressure;BME280_temperature;BME280_humidity;BME280_pressure;Samples;Min_cycle;Max_cycle;Signal;HPM_P1;HPM_P2
2021/10/15 00:00:51;;;;;;;4.29;2.10;;;;;;;4.20;89.85;99766.28;2334819;69;20438;-80
2021/10/15 00:05:22;;;;;;;1.80;1.69;;;;;;;4.19;89.85;99761.09;2310062;69;20275;-80
2021/10/15 00:09:53;;;;;;;3.07;2.68;;;;;;;4.15;89.75;99761.84;2308889;69;20442;-80
2021/10/15 00:14:23;;;;;;;3.97;2.05;;;;;;;4.10;89.69;99759.13;2314109;70;20141;-80
2021/10/15 00:19:00;;;;;;;5.59;2.20;;;;;;;4.07;89.69;99764.19;2082907;70;17708794;-81
2021/10/15 00:23:20;;;;;;;7.82;2.56;;;;;;;4.01;89.65;99761.47;2307260;69;20209;-81
2021/10/15 00:27:54;;;;;;;5.78;2.61;;;;;;;4.05;90.17;99758.16;2297792;69;20417;-80
2021/10/15 00:32:52;;;;;;;5.00;2.89;;;;;;;4.09;90.68;99759.97;2309544;69;20405;-80
2021/10/15 00:41:34;;;;;;;5.35;3.01;;;;;;;4.10;91.13;99748.88;2332835;68;20317;-80
2021/10/15 00:45:56;;;;;;;;;;;;;;;4.09;91.24;99751.41;2338505;68;20310;-81
2021/10/15 00:58:46;;;;;;;5.36;2.54;;;;;;;4.03;91.37;99723.84;2338770;68;20443;-81
2021/10/15 01:03:19;;;;;;;6.39;2.67;;;;;;;4.00;91.36;99728.03;2338779;68;20418;-81
2021/10/15 01:07:56;;;;;;;9.21;2.46;;;;;;;3.97;91.54;99726.25;2340459;68;20334;-81
2021/10/15 01:11:57;;;;;;;4.40;2.59;;;;;;;3.99;91.78;99710.88;2335513;69;20258;-80
2021/10/15 01:28:10;;;;;;;3.03;2.22;;;;;;;3.99;92.24;99704.03;2339810;68;20422;-80
2021/10/15 01:31:39;;;;;;;4.00;2.34;;;;;;;3.97;92.27;99700.56;2343299;68;20280;-80
2021/10/15 01:34:45;;;;;;;3.36;1.98;;;;;;;3.94;92.04;99697.88;2343106;68;20308;-80
2021/10/15 01:38:12;;;;;;;2.94;1.71;;;;;;;3.90;91.96;99693.50;2334145;69;20333;-80
2021/10/15 01:41:32;;;;;;;3.81;1.89;;;;;;;3.92;91.96;99681.56;2348685;69;20276;-80
2021/10/15 01:44:35;;;;;;;4.94;2.41;;;;;;;3.86;91.68;99678.84;2346369;69;20147;-80
2021/10/15 01:47:38;;;;;;;3.80;2.16;;;;;;;3.83;91.49;99671.94;2334920;66;61926;-81
2021/10/15 01:50:43;;;;;;;6.79;2.69;;;;;;;3.82;91.54;99672.78;2344116;68;20241;-81
2021/10/15 01:53:48;;;;;;;7.28;2.16;;;;;;;3.82;91.60;99669.34;2339917;68;20276;-81
2021/10/15 01:56:56;;;;;;;4.03;1.69;;;;;;;3.81;91.66;99667.59;2340597;68;20240;-80
2021/10/15 02:00:13;;;;;;;3.66;1.81;;;;;;;3.83;91.85;99658.22;2351398;68;20253;-80
2021/10/15 02:03:22;;;;;;;4.78;1.73;;;;;;;3.83;91.83;99659.09;1638346;66;52893303;-81
2021/10/15 02:06:25;;;;;;;3.84;1.79;;;;;;;3.82;91.80;99653.91;2319719;69;20134;-81
2021/10/15 02:09:28;;;;;;;5.19;2.22;;;;;;;3.81;91.84;99654.75;2325224;69;20372;-80
2021/10/15 02:12:31;;;;;;;3.16;1.92;;;;;;;3.78;91.85;99649.53;2325267;69;20285;-80
2021/10/15 02:15:33;;;;;;;10.66;1.46;;;;;;;3.76;91.86;99653.75;2321512;69;20396;-81
2021/10/15 02:18:36;;;;;;;3.10;1.81;;;;;;;3.72;91.62;99645.09;2335698;69;20287;-80
2021/10/15 02:21:41;;;;;;;11.45;1.89;;;;;;;3.72;91.75;99651.91;2320137;69;20356;-80
2021/10/15 02:24:44;;;;;;;2.36;1.74;;;;;;;3.67;91.57;99650.94;2326910;69;20252;-80
2021/10/15 02:27:47;;;;;;;2.50;2.11;;;;;;;3.67;91.83;99648.38;2320968;69;20340;-80
2021/10/15 02:30:50;;;;;;;2.75;1.77;;;;;;;3.65;91.78;99650.91;2321017;69;20248;-80
2021/10/15 02:33:53;;;;;;;4.21;2.14;;;;;;;3.65;91.97;99643.19;2337830;68;20274;-80
2021/10/15 02:36:56;;;;;;;4.53;2.11;;;;;;;3.61;91.99;99636.25;2332905;68;20336;-81
2021/10/15 02:39:58;;;;;;;3.53;2.47;;;;;;;3.65;92.09;99643.19;2336327;68;20289;-79
2021/10/15 02:43:01;;;;;;;2.38;2.17;;;;;;;3.66;91.89;99626.09;2345483;68;20297;-79
2021/10/15 02:46:03;;;;;;;2.70;2.16;;;;;;;3.64;91.67;99629.50;2341201;68;20248;-80
2021/10/15 02:49:07;;;;;;;9.10;2.47;;;;;;;3.60;91.50;99627.69;2334509;68;20294;-80
2021/10/15 02:52:10;;;;;;;6.99;2.40;;;;;;;3.58;91.60;99629.31;2353165;68;20364;-80
2021/10/15 02:55:12;;;;;;;2.59;2.25;;;;;;;3.55;91.37;99624.09;2341915;69;20753;-80
2021/10/15 02:58:15;;;;;;;4.94;2.00;;;;;;;3.47;90.89;99620.47;2336534;68;20288;-80
2021/10/15 03:01:19;;;;;;;7.72;1.81;;;;;;;3.41;90.97;99621.97;2333624;69;20253;-81
2021/10/15 03:04:22;;;;;;;3.58;2.36;;;;;;;3.35;90.97;99620.09;2356485;68;20278;-80
2021/10/15 03:07:25;;;;;;;5.28;2.09;;;;;;;3.31;90.92;99616.59;2342572;68;20368;-80
2021/10/15 03:10:27;;;;;;;4.05;2.29;;;;;;;3.30;90.96;99614.00;2339179;68;20278;-80
2021/10/15 03:13:30;;;;;;;2.89;1.95;;;;;;;3.28;90.95;99615.66;2354632;68;20289;-80
2021/10/15 03:16:32;;;;;;;3.13;2.06;;;;;;;3.29;91.22;99609.69;2346868;68;20245;-81
2021/10/15 03:19:36;;;;;;;3.36;2.50;;;;;;;3.35;91.42;99612.41;2339490;68;20299;-81
2021/10/15 03:22:38;;;;;;;2.91;2.42;;;;;;;3.36;91.42;99609.00;2341234;68;20296;-80
2021/10/15 03:25:41;;;;;;;6.01;2.96;;;;;;;3.34;91.23;99613.25;2343653;68;20297;-80
2021/10/15 03:28:44;;;;;;;4.29;2.90;;;;;;;3.30;91.15;99609.72;2337148;68;20278;-80
2021/10/15 03:31:47;;;;;;;3.79;2.55;;;;;;;3.27;91.06;99614.78;2341634;68;20296;-80
2021/10/15 03:34:49;;;;;;;2.86;2.35;;;;;;;3.23;91.05;99617.19;2364657;68;20252;-79
2021/10/15 03:37:52;;;;;;;3.72;2.51;;;;;;;3.18;90.87;99619.63;2337487;68;20315;-80
2021/10/15 03:40:56;;;;;;;3.04;2.47;;;;;;;3.14;90.74;99619.50;2344260;68;20268;-80
2021/10/15 03:43:59;;;;;;;2.38;2.17;;;;;;;3.07;90.32;99615.03;2346603;68;20249;-80
2021/10/15 03:47:02;;;;;;;3.30;2.09;;;;;;;3.03;90.33;99616.63;2349083;68;20281;-80
2021/10/15 03:50:08;;;;;;;5.34;2.46;;;;;;;2.97;90.10;99607.06;2352990;68;20274;-80
2021/10/15 03:53:10;;;;;;;6.04;2.94;;;;;;;2.93;90.41;99610.38;2345140;68;20348;-80
2021/10/15 03:56:13;;;;;;;6.49;2.70;;;;;;;2.98;91.02;99610.50;2342238;68;20252;-81
2021/10/15 03:59:16;;;;;;;9.84;3.25;;;;;;;3.04;91.46;99614.09;2339671;68;20289;-80
2021/10/15 04:02:19;;;;;;;5.30;3.09;;;;;;;3.07;91.75;99615.03;2341375;66;74294;-81
2021/10/15 04:05:26;;;;;;;10.81;3.20;;;;;;;3.14;92.19;99616.94;2350127;68;20256;-79
2021/10/15 04:08:30;;;;;;;5.49;3.34;;;;;;;3.17;92.25;99614.47;2357339;68;20399;-80
2021/10/15 04:11:47;;;;;;;9.49;3.35;;;;;;;3.16;92.23;99615.28;2351211;68;20260;-80
2021/10/15 04:14:55;;;;;;;17.48;4.32;;;;;;;3.16;92.11;99612.72;2347711;68;20318;-81
2021/10/15 04:18:09;;;;;;;10.02;4.95;;;;;;;3.17;92.28;99614.47;2334002;68;1001936;-80
2021/10/15 04:21:18;;;;;;;14.65;4.89;;;;;;;3.24;92.73;99601.88;2350693;68;20149;-81
2021/10/15 04:24:22;;;;;;;18.13;4.88;;;;;;;3.27;92.77;99598.50;2337466;68;20249;-80
2021/10/15 04:27:36;;;;;;;14.45;5.43;;;;;;;3.32;93.09;99595.22;2342698;68;20335;-79
2021/10/15 04:30:48;;;;;;;14.66;4.80;;;;;;;3.36;93.32;99585.91;2342738;68;20240;-79
2021/10/15 04:34:20;;;;;;;28.95;5.31;;;;;;;3.41;93.44;99594.63;2348410;68;20343;-81
2021/10/15 04:37:47;;;;;;;19.08;5.49;;;;;;;3.44;93.49;99596.41;2338823;68;20344;-81
2021/10/15 04:41:04;;;;;;;22.10;4.82;;;;;;;3.44;93.59;99592.16;2342623;68;20277;-80
2021/10/15 04:44:15;;;;;;;8.82;4.86;;;;;;;3.44;93.64;99591.28;2348630;68;20351;-80
2021/10/15 04:47:19;;;;;;;8.79;4.93;;;;;;;3.48;93.95;99596.53;2334483;68;1002881;-80
2021/10/15 04:50:36;;;;;;;7.94;4.76;;;;;;;3.52;94.00;99592.34;2338157;68;20252;-80
2021/10/15 04:54:14;;;;;;;23.45;4.45;;;;;;;3.55;94.07;99605.25;2346545;68;20277;-80
2021/10/15 04:57:48;;;;;;;11.57;4.49;;;;;;;3.53;93.88;99594.94;2340372;69;20311;-80
2021/10/15 05:01:33;;;;;;;7.93;5.18;;;;;;;3.51;93.76;99590.59;2348927;68;20378;-80
2021/10/15 05:13:40;;;;;;;10.32;3.94;;;;;;;3.69;94.01;99579.94;2353106;68;20283;-80
2021/10/15 05:21:51;;;;;;;7.26;3.59;;;;;;;3.55;93.28;99561.63;2340203;68;20143;-80
2021/10/15 05:25:58;;;;;;;4.09;3.19;;;;;;;3.47;93.12;99564.00;2347780;68;20331;-80
2021/10/15 05:30:16;;;;;;;5.11;3.50;;;;;;;3.48;92.96;99562.28;2334030;68;20284;-80
2021/10/15 06:02:51;;;;;;;3.59;3.29;;;;;;;3.21;91.97;99547.88;2335193;66;249951;-81
2021/10/15 08:26:02;;;;;;;4.26;3.95;;;;;;;7.96;83.26;99603.91;2355389;67;20329;-82
2021/10/15 08:29:05;;;;;;;4.40;3.97;;;;;;;8.20;82.47;99605.84;2337990;68;20251;-82
2021/10/15 08:32:08;;;;;;;4.22;3.83;;;;;;;8.30;82.06;99607.66;2344337;68;20359;-82
2021/10/15 08:35:10;;;;;;;4.28;3.79;;;;;;;8.44;81.96;99603.50;2352488;68;20364;-82
2021/10/15 08:38:13;;;;;;;4.72;4.32;;;;;;;8.60;81.95;99603.59;2335252;69;20307;-82
2021/10/15 08:41:23;;;;;;;5.22;4.53;;;;;;;8.78;81.74;99604.56;2341126;68;20272;-82
2021/10/15 08:44:37;;;;;;;5.36;4.76;;;;;;;9.19;82.46;99598.78;2347490;68;20261;-82
2021/10/15 08:47:39;;;;;;;4.51;4.14;;;;;;;9.39;80.95;99601.44;2354273;68;20363;-81
2021/10/15 08:51:03;;;;;;;4.94;4.49;;;;;;;9.50;80.47;99604.06;2337672;69;20128;-81
2021/10/15 08:54:06;;;;;;;6.50;4.35;;;;;;;9.61;80.55;99600.63;2352776;68;20164;-83
2021/10/15 08:57:09;;;;;;;5.11;4.69;;;;;;;9.65;80.17;99589.41;2330550;69;20133;-83
2021/10/15 09:00:31;;;;;;;5.38;4.74;;;;;;;9.69;79.87;99590.28;2333106;68;20178;-82
2021/10/15 09:03:34;;;;;;;5.93;5.30;;;;;;;9.88;79.89;99599.00;2337843;68;20128;-83
2021/10/15 09:06:39;;;;;;;6.72;5.39;;;;;;;10.10;79.26;99590.34;2335969;68;20206;-83
2021/10/15 09:19:25;;;;;;;7.55;5.70;;;;;;;11.43;77.24;99592.72;2342824;68;20129;-83
2021/10/15 09:23:16;;;;;;;6.29;5.29;;;;;;;11.86;75.32;99598.59;2310683;69;20134;-83
2021/10/15 09:26:55;;;;;;;7.39;5.78;;;;;;;12.02;73.47;99602.78;2306810;69;20131;-83
2021/10/15 09:30:50;;;;;;;5.89;4.89;;;;;;;11.95;73.84;99611.53;2306316;70;20228;-83
2021/10/15 09:34:48;;;;;;;7.56;5.56;;;;;;;11.99;73.66;99613.22;2311355;69;20171;-82
2021/10/15 09:38:59;;;;;;;5.71;4.70;;;;;;;12.09;73.04;99616.66;2308338;69;20224;-82
2021/10/15 09:43:16;;;;;;;5.84;4.57;;;;;;;12.16;72.44;99622.66;2320186;69;20213;-83
2021/10/15 10:14:34;;;;;;;6.86;3.95;;;;;;;14.26;66.83;99609.00;2345884;68;20133;-81
2021/10/15 10:24:10;;;;;;;5.96;3.75;;;;;;;14.39;65.82;99610.53;2345046;68;20224;-82
2021/10/15 11:29:12;;;;;;;3.75;2.36;;;;;;;16.00;58.82;99575.13;2336880;68;20124;-81
2021/10/15 11:32:44;;;;;;;3.01;2.21;;;;;;;15.91;59.61;99572.69;2337906;68;20121;-81
2021/10/15 11:36:41;;;;;;;4.39;1.98;;;;;;;15.97;59.93;99562.06;2335133;68;20101;-80
2021/10/15 11:40:54;;;;;;;3.95;1.50;;;;;;;15.92;58.44;99556.09;2339397;69;20263;-81
2021/10/15 11:45:14;;;;;;;5.20;1.77;;;;;;;16.14;59.40;99562.53;2327829;68;20130;-81
2021/10/15 11:49:02;;;;;;;5.50;2.01;;;;;;;16.12;56.66;99553.84;2331801;68;20134;-81
2021/10/15 11:52:55;;;;;;;6.43;2.51;;;;;;;16.13;57.75;99544.22;2337987;68;20108;-81
2021/10/15 11:57:02;;;;;;;4.20;2.06;;;;;;;16.06;58.31;99546.16;2333486;69;20105;-81
2021/10/15 12:00:29;;;;;;;4.85;2.00;;;;;;;16.22;58.56;99536.16;2331542;69;20246;-81
2021/10/15 12:04:23;;;;;;;6.11;2.25;;;;;;;16.27;58.71;99534.28;2341817;69;20177;-81
2021/10/15 12:08:22;;;;;;;3.33;1.98;;;;;;;16.35;57.35;99529.72;2329788;68;20112;-81
2021/10/15 12:15:29;;;;;;;7.06;2.33;;;;;;;16.82;57.08;99538.97;2331713;68;20113;-81
2021/10/15 12:18:43;;;;;;;2.75;1.79;;;;;;;16.81;54.16;99536.38;2322370;69;20172;-80
2021/10/15 12:22:24;;;;;;;3.08;1.70;;;;;;;16.81;54.78;99534.63;2323439;69;20121;-81
2021/10/15 12:25:36;;;;;;;3.56;1.59;;;;;;;16.96;54.82;99535.09;2338377;69;20128;-81
2021/10/15 15:17:55;;;;;;;2.05;1.10;;;;;;;15.76;60.35;99497.97;2345304;68;20162;-78
2021/10/15 15:21:02;;;;;;;2.65;1.35;;;;;;;15.74;60.46;99512.88;2327550;68;20182;-78
2021/10/15 15:24:05;;;;;;;3.44;1.35;;;;;;;15.80;60.68;99510.13;2330086;68;20586;-77
2021/10/15 15:27:07;;;;;;;3.24;1.46;;;;;;;15.89;61.71;99514.28;2321962;68;20624;-78
2021/10/15 15:30:11;;;;;;;4.10;1.27;;;;;;;15.98;61.78;99500.97;2327455;68;20143;-77
2021/10/15 15:33:15;;;;;;;2.75;1.13;;;;;;;16.04;62.75;99506.03;2327122;68;20154;-78
2021/10/15 15:36:21;;;;;;;2.83;1.10;;;;;;;16.57;62.11;99516.91;2326782;68;20242;-78
2021/10/15 15:39:25;;;;;;;2.63;0.80;;;;;;;16.52;62.37;99522.28;2326685;68;20174;-77
2021/10/15 15:42:28;;;;;;;4.38;0.96;;;;;;;16.28;63.70;99521.13;2325961;68;20151;-77
2021/10/15 15:45:30;;;;;;;3.51;1.01;;;;;;;15.96;64.49;99513.22;2325046;68;20175;-77
2021/10/15 15:48:35;;;;;;;1.55;0.91;;;;;;;15.66;65.91;99523.53;2326881;68;20505;-78
2021/10/15 15:51:38;;;;;;;2.61;1.10;;;;;;;15.35;66.52;99525.06;2326281;68;21201;-77
2021/10/15 15:54:41;;;;;;;1.69;0.80;;;;;;;15.12;66.78;99520.34;2326687;68;21003;-77
2021/10/15 15:57:48;;;;;;;1.70;0.80;;;;;;;14.96;68.25;99525.00;2326276;68;20163;-77
2021/10/15 16:00:51;;;;;;;1.71;0.90;;;;;;;14.79;69.14;99529.72;2324618;68;20379;-77
2021/10/15 16:03:54;;;;;;;3.85;0.88;;;;;;;14.61;69.37;99536.13;2325993;68;20269;-78
2021/10/15 16:06:57;;;;;;;2.64;0.81;;;;;;;14.48;70.15;99529.41;2325455;68;20147;-77
2021/10/15 16:10:00;;;;;;;1.54;0.81;;;;;;;14.31;71.33;99532.28;2325569;68;20296;-78
2021/10/15 16:13:03;;;;;;;2.97;0.77;;;;;;;14.15;72.35;99529.06;2326013;68;21265;-77
2021/10/15 16:16:05;;;;;;;5.40;1.08;;;;;;;13.98;73.01;99535.44;2325042;68;20188;-77
2021/10/15 16:19:08;;;;;;;1.96;0.80;;;;;;;13.80;73.38;99529.63;2326124;68;20767;-78
2021/10/15 16:22:10;;;;;;;1.54;0.71;;;;;;;13.63;74.14;99529.00;2324467;68;20147;-78
2021/10/15 16:25:13;;;;;;;3.39;0.89;;;;;;;13.45;74.62;99526.66;2332812;68;20523;-77
2021/10/15 16:28:16;;;;;;;3.15;0.70;;;;;;;13.26;74.73;99526.06;2333066;68;20199;-77
2021/10/15 16:31:19;;;;;;;4.51;0.88;;;;;;;13.08;75.31;99521.03;2327823;68;20154;-77
2021/10/15 16:34:22;;;;;;;3.04;0.80;;;;;;;12.88;76.01;99526.50;2331401;68;20172;-77
2021/10/15 16:37:25;;;;;;;4.26;0.88;;;;;;;12.69;76.59;99529.31;2332363;68;20175;-77
2021/10/15 16:40:28;;;;;;;1.15;0.60;;;;;;;12.52;77.09;99536.44;2332876;68;20162;-77
2021/10/15 16:43:31;;;;;;;0.95;0.64;;;;;;;12.37;77.73;99533.97;2330165;68;20209;-77
2021/10/15 16:46:33;;;;;;;3.28;0.60;;;;;;;12.27;78.17;99535.81;2332128;68;20230;-76
2021/10/15 16:49:36;;;;;;;2.06;0.71;;;;;;;12.13;78.82;99537.66;2332072;68;20803;-77
2021/10/15 16:52:39;;;;;;;2.16;0.79;;;;;;;12.03;79.28;99541.22;2332298;68;20218;-77
2021/10/15 16:55:42;;;;;;;2.84;0.90;;;;;;;11.96;79.67;99543.00;2332080;68;20150;-77
2021/10/15 16:58:44;;;;;;;1.94;0.75;;;;;;;11.89;80.11;99543.06;2330764;68;20176;-77
2021/10/15 17:01:48;;;;;;;1.63;0.89;;;;;;;11.81;80.35;99553.50;2329712;68;20180;-77
2021/10/15 17:04:52;;;;;;;2.26;0.80;;;;;;;11.74;80.65;99555.28;2333017;68;20254;-76
2021/10/15 17:07:54;;;;;;;1.39;0.80;;;;;;;11.67;80.97;99560.50;2332515;68;20180;-77
2021/10/15 17:10:57;;;;;;;0.61;0.61;;;;;;;11.58;81.20;99563.16;2332922;68;20187;-77
2021/10/15 17:13:59;;;;;;;1.66;0.80;;;;;;;11.45;81.50;99568.44;2331406;68;20170;-77
2021/10/15 17:17:02;;;;;;;1.49;0.84;;;;;;;11.41;81.73;99569.31;2326175;68;20234;-78
2021/10/15 17:20:06;;;;;;;2.19;0.69;;;;;;;11.38;81.93;99578.88;2335109;68;20146;-77
2021/10/15 17:23:09;;;;;;;3.20;1.34;;;;;;;11.30;81.78;99576.28;2338742;68;20191;-80
2021/10/15 17:26:11;;;;;;;1.46;0.73;;;;;;;11.26;82.13;99581.53;2332900;68;20763;-79
2021/10/15 17:29:14;;;;;;;1.88;0.84;;;;;;;11.15;82.26;99585.03;2338839;68;20224;-79
2021/10/15 17:32:16;;;;;;;2.63;0.80;;;;;;;11.04;82.28;99589.41;2340940;68;20708;-80
2021/10/15 17:35:20;;;;;;;1.79;0.70;;;;;;;10.90;82.50;99593.75;2339492;68;20210;-79
2021/10/15 17:38:23;;;;;;;2.35;0.90;;;;;;;10.84;82.76;99591.19;2342238;68;20309;-80
2021/10/15 17:41:26;;;;;;;2.29;0.69;;;;;;;10.74;82.90;99590.34;2338626;68;20235;-80
2021/10/15 17:44:28;;;;;;;1.86;0.75;;;;;;;10.64;83.29;99591.25;2340875;68;20179;-81
2021/10/15 17:47:35;;;;;;;2.00;0.70;;;;;;;10.59;83.54;99593.84;2343603;68;20106;-81
2021/10/15 17:50:38;;;;;;;1.01;0.74;;;;;;;10.53;83.91;99588.63;2338108;68;20146;-79
2021/10/15 17:53:40;;;;;;;1.31;0.81;;;;;;;10.49;84.36;99596.44;2341953;68;20837;-80
2021/10/15 17:56:44;;;;;;;1.89;0.70;;;;;;;10.47;84.75;99605.97;2339180;68;20154;-80
2021/10/15 17:59:47;;;;;;;1.16;0.73;;;;;;;10.46;85.08;99605.09;2340305;68;20258;-80
2021/10/15 18:03:09;;;;;;;2.78;1.01;;;;;;;10.46;85.42;99604.25;2335746;68;20134;-80
2021/10/15 18:06:13;;;;;;;1.81;1.14;;;;;;;10.46;85.70;99610.28;2339792;68;20178;-79
2021/10/15 18:09:15;;;;;;;2.83;0.99;;;;;;;10.50;85.93;99604.22;2333348;68;20246;-80
2021/10/15 18:12:18;;;;;;;1.65;0.91;;;;;;;10.53;86.09;99605.94;2339392;68;20150;-79
2021/10/15 18:15:21;;;;;;;2.35;1.08;;;;;;;10.54;86.15;99598.16;2339281;68;20210;-80
2021/10/15 18:18:24;;;;;;;1.63;1.10;;;;;;;10.55;86.20;99610.28;2338180;68;20234;-80
2021/10/15 18:21:27;;;;;;;2.91;1.08;;;;;;;10.56;86.30;99604.22;2339292;68;20153;-79
2021/10/15 18:24:30;;;;;;;2.71;0.90;;;;;;;10.57;86.35;99605.06;2338778;68;20250;-80
2021/10/15 18:27:33;;;;;;;1.06;0.90;;;;;;;10.57;86.52;99611.13;2339671;68;20143;-79
2021/10/15 18:30:36;;;;;;;3.59;1.33;;;;;;;10.56;86.77;99603.34;2336550;68;20186;-80
2021/10/15 18:33:38;;;;;;;1.89;0.98;;;;;;;10.58;87.06;99607.66;2339654;68;20138;-79
2021/10/15 18:36:41;;;;;;;2.33;1.40;;;;;;;10.61;87.40;99616.34;2338439;68;20146;-79
2021/10/15 18:39:44;;;;;;;3.22;1.41;;;;;;;10.62;87.56;99626.72;2338955;68;20186;-79
2021/10/15 18:42:48;;;;;;;1.38;0.99;;;;;;;10.67;87.27;99630.19;2338177;68;20142;-79
2021/10/15 18:45:53;;;;;;;1.36;0.90;;;;;;;10.69;87.38;99636.22;2337856;68;20905;-79
2021/10/15 18:48:56;;;;;;;2.01;0.89;;;;;;;10.70;87.24;99635.38;2338115;68;20162;-80
2021/10/15 18:51:59;;;;;;;3.44;1.00;;;;;;;10.68;87.19;99634.50;2336704;68;20134;-80
2021/10/15 18:55:03;;;;;;;3.29;1.04;;;;;;;10.67;87.46;99642.31;2326447;68;20708;-80
2021/10/15 18:58:06;;;;;;;2.38;1.40;;;;;;;10.67;87.69;99643.16;2329854;68;20163;-79
2021/10/15 19:01:10;;;;;;;2.97;2.05;;;;;;;10.68;87.86;99647.50;2322537;68;20690;-79
2021/10/15 19:04:13;;;;;;;3.13;1.70;;;;;;;10.68;88.06;99654.41;2331438;68;20178;-80
2021/10/15 19:07:16;;;;;;;6.39;1.88;;;;;;;10.71;87.97;99654.41;2335670;68;20143;-79
2021/10/15 19:10:19;;;;;;;3.45;1.69;;;;;;;10.71;87.91;99655.28;2331836;68;20147;-79
2021/10/15 19:13:33;;;;;;;3.66;1.65;;;;;;;10.74;87.87;99660.47;2341740;68;20115;-80
2021/10/15 19:16:40;;;;;;;4.54;1.89;;;;;;;10.75;87.77;99653.53;2343857;68;20170;-82
2021/10/15 19:19:43;;;;;;;3.51;1.55;;;;;;;10.72;87.79;99659.59;2332265;68;20177;-80
2021/10/15 19:22:46;;;;;;;2.34;1.40;;;;;;;10.73;87.88;99663.06;2338849;68;20185;-81
2021/10/15 19:25:49;;;;;;;2.11;1.44;;;;;;;10.71;88.13;99657.88;2338525;68;20150;-80
2021/10/15 19:28:53;;;;;;;4.96;1.86;;;;;;;10.72;88.31;99658.72;2330813;68;20162;-80
2021/10/15 19:31:58;;;;;;;4.76;1.58;;;;;;;10.73;88.37;99657.88;2328717;68;20642;-80
2021/10/15 19:35:01;;;;;;;4.29;2.04;;;;;;;10.74;88.47;99657.84;2332383;68;20257;-79
2021/10/15 19:38:05;;;;;;;1.23;1.05;;;;;;;10.76;88.60;99665.66;2334671;68;20401;-79
2021/10/15 19:41:11;;;;;;;1.49;1.10;;;;;;;10.80;88.58;99668.25;2331016;68;20184;-80
2021/10/15 19:44:19;;;;;;;1.27;1.00;;;;;;;10.82;88.68;99661.34;2329628;68;20175;-80
2021/10/15 19:47:26;;;;;;;4.86;1.34;;;;;;;10.85;88.82;99668.25;2328792;68;20175;-80
2021/10/15 19:50:29;;;;;;;4.35;2.60;;;;;;;10.89;88.62;99657.00;2334703;68;20171;-80
2021/10/15 19:53:34;;;;;;;3.81;3.00;;;;;;;10.92;88.31;99664.78;2330289;68;20159;-80
2021/10/15 19:56:36;;;;;;;9.02;4.70;;;;;;;10.89;88.28;99672.56;2328701;68;20139;-80
2021/10/15 19:59:40;;;;;;;9.98;6.30;;;;;;;10.86;88.02;99672.59;2335310;68;20171;-80
2021/10/15 20:02:43;;;;;;;6.40;4.31;;;;;;;10.82;87.81;99682.13;2329795;68;20195;-80
2021/10/15 20:05:46;;;;;;;4.91;3.22;;;;;;;10.71;87.84;99678.66;2335573;68;20167;-79
2021/10/15 20:08:50;;;;;;;3.88;3.47;;;;;;;10.70;88.16;99683.84;2336203;68;20233;-79
2021/10/15 20:11:53;;;;;;;6.09;3.49;;;;;;;10.68;88.37;99689.03;2330837;68;20240;-80
2021/10/15 20:14:56;;;;;;;6.96;4.55;;;;;;;10.78;88.93;99680.41;2333641;68;20715;-80
2021/10/15 20:17:59;;;;;;;5.03;4.26;;;;;;;10.88;89.18;99683.84;2334711;68;20163;-80
2021/10/15 20:21:03;;;;;;;6.10;5.06;;;;;;;10.93;88.75;99681.22;2334066;68;20139;-80
2021/10/15 20:24:08;;;;;;;6.60;4.63;;;;;;;10.96;88.37;99686.44;2337917;68;20107;-81
2021/10/15 20:27:11;;;;;;;4.29;3.88;;;;;;;11.02;88.91;99689.03;2332071;68;20183;-79
2021/10/15 20:30:14;;;;;;;4.72;3.74;;;;;;;11.09;88.70;99690.72;2333969;68;20222;-80
2021/10/15 20:33:17;;;;;;;3.04;2.49;;;;;;;11.18;88.38;99685.53;2338468;68;20308;-80
2021/10/15 20:36:20;;;;;;;3.99;2.69;;;;;;;11.26;87.72;99693.28;2340277;68;20582;-80
2021/10/15 20:39:23;;;;;;;3.39;2.01;;;;;;;11.33;86.72;99687.22;2343281;68;20171;-81
2021/10/15 20:42:26;;;;;;;2.28;1.75;;;;;;;11.36;86.24;99687.22;2334949;68;20398;-81
2021/10/15 20:45:31;;;;;;;3.29;1.74;;;;;;;11.40;85.47;99688.94;2339044;68;20964;-81
2021/10/15 20:48:34;;;;;;;2.34;1.06;;;;;;;11.43;84.42;99684.59;2336824;68;20204;-81
2021/10/15 20:51:37;;;;;;;1.56;0.90;;;;;;;11.44;83.48;99678.50;2339174;68;20096;-80
2021/10/15 20:54:40;;;;;;;1.21;0.89;;;;;;;11.46;82.37;99681.97;2353452;68;20172;-81
2021/10/15 20:57:43;;;;;;;2.14;1.10;;;;;;;11.47;81.60;99678.50;2333431;68;20192;-80
2021/10/15 21:00:48;;;;;;;2.25;1.00;;;;;;;11.44;81.21;99683.72;2341290;68;20426;-80
2021/10/15 21:03:51;;;;;;;2.26;1.23;;;;;;;11.42;81.20;99685.44;2334809;68;20391;-80
2021/10/15 21:06:54;;;;;;;2.80;1.31;;;;;;;11.40;81.72;99676.78;2341813;68;20139;-80
2021/10/15 21:09:57;;;;;;;7.41;3.22;;;;;;;11.35;82.52;99688.94;2334329;68;20440;-80
2021/10/15 21:13:01;;;;;;;5.04;2.65;;;;;;;11.30;82.85;99679.41;2340239;68;20691;-80
2021/10/15 21:16:07;;;;;;;5.46;2.34;;;;;;;11.29;82.56;99688.94;2337255;68;20175;-80
2021/10/15 21:19:10;;;;;;;4.25;1.51;;;;;;;11.27;82.42;99695.03;2333871;68;20172;-80
2021/10/15 21:22:13;;;;;;;2.30;1.10;;;;;;;11.25;81.92;99687.22;2337572;68;20192;-80
2021/10/15 21:25:17;;;;;;;1.33;0.85;;;;;;;11.25;81.52;99700.22;2339050;68;20294;-80
2021/10/15 21:28:19;;;;;;;3.30;1.20;;;;;;;11.25;81.23;99696.75;2337136;68;20538;-80
2021/10/15 21:31:22;;;;;;;2.11;1.04;;;;;;;11.26;81.16;99708.91;2332767;68;20744;-80
2021/10/15 21:34:25;;;;;;;2.64;0.90;;;;;;;11.27;80.96;99708.03;2334317;68;20186;-80
2021/10/15 21:37:28;;;;;;;0.94;0.70;;;;;;;11.28;80.71;99712.34;2340273;68;20103;-80
2021/10/15 21:40:30;;;;;;;2.00;0.70;;;;;;;11.24;80.45;99708.03;2331483;68;20159;-80
2021/10/15 21:43:33;;;;;;;1.76;0.61;;;;;;;11.23;80.50;99721.91;2336719;68;20223;-80
2021/10/15 21:46:36;;;;;;;1.39;0.50;;;;;;;11.20;80.29;99720.19;2331870;68;20196;-80
2021/10/15 21:49:39;;;;;;;0.66;0.60;;;;;;;11.18;80.32;99714.13;2337047;68;20153;-79
2021/10/15 21:52:42;;;;;;;3.42;1.75;;;;;;;11.15;80.49;99714.13;2334489;68;20146;-80
2021/10/15 21:55:44;;;;;;;2.25;0.70;;;;;;;11.09;80.96;99712.38;2332604;68;20175;-80
2021/10/15 21:58:47;;;;;;;0.57;0.40;;;;;;;11.08;81.26;99721.03;2334547;68;20155;-80
2021/10/15 22:01:50;;;;;;;1.52;0.71;;;;;;;11.05;81.36;99712.41;2336193;68;20310;-80
2021/10/15 22:04:54;;;;;;;2.85;0.90;;;;;;;11.01;81.44;99708.06;2339941;68;20143;-80
2021/10/15 22:07:58;;;;;;;2.81;1.14;;;;;;;10.96;82.19;99710.69;2342358;68;20151;-80
2021/10/15 22:11:02;;;;;;;2.61;0.90;;;;;;;10.86;83.17;99709.81;2332676;68;20139;-80
2021/10/15 22:14:05;;;;;;;1.90;1.00;;;;;;;10.79;83.56;99705.50;2341436;68;20184;-80
2021/10/15 22:17:07;;;;;;;2.55;1.19;;;;;;;10.72;84.02;99715.88;2332832;68;20135;-80
2021/10/15 22:20:11;;;;;;;2.65;1.00;;;;;;;10.64;84.44;99720.22;2339022;68;20607;-80
2021/10/15 22:23:14;;;;;;;2.14;0.79;;;;;;;10.57;85.00;99720.19;2342167;68;20195;-80
2021/10/15 22:26:17;;;;;;;3.21;0.85;;;;;;;10.49;85.51;99714.13;2336626;68;20454;-80
2021/10/15 22:29:20;;;;;;;0.94;0.70;;;;;;;10.46;85.70;99714.13;2334613;68;20108;-80
2021/10/15 22:32:23;;;;;;;0.66;0.55;;;;;;;10.46;85.58;99716.72;2339330;68;20129;-80
2021/10/15 22:35:26;;;;;;;0.79;0.66;;;;;;;10.42;85.74;99715.00;2335162;68;20428;-80
2021/10/15 22:38:28;;;;;;;1.30;0.41;;;;;;;10.39;86.04;99725.34;2337645;68;20130;-80
2021/10/15 22:41:31;;;;;;;0.85;0.49;;;;;;;10.44;85.07;99730.56;2340799;68;20111;-81
2021/10/15 22:44:34;;;;;;;0.60;0.60;;;;;;;10.45;84.46;99733.19;2338263;68;20143;-80
2021/10/15 22:47:37;;;;;;;1.70;0.94;;;;;;;10.48;84.04;99724.53;2342506;68;20143;-80
2021/10/15 22:50:40;;;;;;;1.13;0.66;;;;;;;10.49;83.92;99723.66;2336722;68;20158;-80
2021/10/15 22:53:43;;;;;;;1.48;0.80;;;;;;;10.49;83.83;99718.47;2333756;68;20263;-80
2021/10/15 22:56:46;;;;;;;1.23;0.86;;;;;;;10.50;83.78;99726.25;2341435;68;20139;-80
2021/10/15 22:59:49;;;;;;;0.89;0.80;;;;;;;10.50;83.63;99726.25;2339073;68;20212;-81
2021/10/15 23:02:52;;;;;;;1.30;0.85;;;;;;;10.49;83.58;99728.84;2331782;68;20610;-80
2021/10/15 23:05:56;;;;;;;2.11;1.00;;;;;;;10.49;83.69;99734.03;2338977;68;20496;-81
2021/10/15 23:08:59;;;;;;;0.82;0.80;;;;;;;10.48;83.76;99729.72;2333858;68;20108;-80
2021/10/15 23:12:02;;;;;;;1.75;0.80;;;;;;;10.45;83.65;99733.19;2335674;68;20143;-81
2021/10/15 23:15:06;;;;;;;1.35;0.86;;;;;;;10.45;83.70;99732.31;2341135;68;20173;-81
2021/10/15 23:18:09;;;;;;;1.64;1.04;;;;;;;10.44;83.73;99730.56;2324616;66;29962;-80